
Distance (Route):
Temperature : -30.4°C
Humidity : 10.8%
Pressure : 0hPa| Receiver | Date | Latitude | Longitude | Direction | Speed | Altitude | Climb | Temperature | Humidity | Pressure | Voltage | Killtimer | Uptime | BKT | XDATA |
|---|---|---|---|---|---|---|---|---|---|---|---|---|---|---|---|
| LZ4TU-5 | 2026-09-02 18:54:54 | 44.80836 | 21.15276 | 103° | 47km/h | 8395m | -20.4m/s | -30.4°C | 10.8% | 0hPa | 5.4V | 00:00:00 | 00:00:00 | 00:00:00 | |
| LZ4TU-5 | 2026-09-02 18:54:49 | 44.80847 | 21.15192 | 102° | 47km/h | 8493m | -20.4m/s | -30.9°C | 13.7% | 0hPa | 5.4V | 00:00:00 | 00:00:00 | 00:00:00 | |
| LZ4TU-5 | 2026-09-02 18:52:56 | 44.80734 | 21.12717 | 65° | 99km/h | 10955m | -23.4m/s | -51.3°C | 26.9% | 0hPa | 5.4V | 00:00:00 | 00:00:00 | 00:00:00 | |
| LZ4TU-5 | 2026-09-02 18:52:52 | 44.80688 | 21.12588 | 64° | 104km/h | 11051m | -23.8m/s | -51.5°C | 25.0% | 0hPa | 5.4V | 00:00:00 | 00:00:00 | 00:00:00 | |
| LZ4TU-5 | 2026-09-02 18:51:43 | 44.80000 | 21.10106 | 79° | 91km/h | 12755m | -26.3m/s | -52.4°C | 2.1% | 0hPa | 5.4V | 00:00:00 | 00:00:00 | 00:00:00 | |
| LZ4TU-5 | 2026-09-02 18:51:38 | 44.79973 | 21.09950 | 76° | 86km/h | 12883m | -26.5m/s | -52.2°C | 2.0% | 0hPa | 5.4V | 00:00:00 | 00:00:00 | 00:00:00 | |
| OM5KV | 2026-09-02 18:45:16 | 44.79695 | 21.05713 | 222° | 11km/h | 29795m | -81.8m/s | -41.6°C | 0.0% | 0hPa | 5.4V | 00:00:00 | 00:00:00 | 00:00:00 | |
| OM5KV | 2026-09-02 18:45:10 | 44.79706 | 21.05729 | 240° | 13km/h | 30289m | -77.3m/s | -41.0°C | 0.0% | 0hPa | 5.4V | 00:00:00 | 00:00:00 | 00:00:00 | |
| OM5KV | 2026-09-02 18:45:00 | 44.79728 | 21.05784 | 260° | 27km/h | 30941m | -45.5m/s | -41.5°C | 0.0% | 0hPa | 5.4V | 00:00:00 | 00:00:00 | 00:00:00 | |
| OM5KV | 2026-09-02 18:44:54 | 44.79740 | 21.05825 | 236° | 15km/h | 31072m | -1.9m/s | -42.2°C | 0.0% | 0hPa | 5.4V | 00:00:00 | 00:00:00 | 00:00:00 | |
| OM5KV | 2026-09-02 18:44:48 | 44.79722 | 21.05882 | 290° | 44km/h | 31037m | 4.1m/s | -42.0°C | 0.0% | 0hPa | 5.4V | 00:00:00 | 00:00:00 | 00:00:00 | |
| OM5KV | 2026-09-02 18:44:42 | 44.79747 | 21.05934 | 227° | 20km/h | 30992m | 7.6m/s | -41.9°C | 0.0% | 0hPa | 5.4V | 00:00:00 | 00:00:00 | 00:00:00 | |
| OM5KV | 2026-09-02 18:44:36 | 44.79730 | 21.05995 | 283° | 27km/h | 30944m | 7.9m/s | -42.0°C | 0.0% | 0hPa | 5.4V | 00:00:00 | 00:00:00 | 00:00:00 | |
| OE3JTB-15 | 2026-09-02 18:44:19 | 44.79798 | 21.06108 | 177° | 18km/h | 30812m | 6.5m/s | -42.6°C | 0% | 0hPa | 5.4V | 00:00:00 | 00:00:00 | 00:00:00 | |
| OM5KV | 2026-09-02 18:44:14 | 44.79807 | 21.06126 | 304° | 13km/h | 30773m | 8.1m/s | -43.0°C | 0.0% | 0hPa | 5.4V | 00:00:00 | 00:00:00 | 00:00:00 | |
| OM5KV | 2026-09-02 18:44:02 | 44.79836 | 21.06143 | 25° | 22km/h | 30681m | 7.0m/s | -43.3°C | 0.0% | 0hPa | 5.4V | 00:00:00 | 00:00:00 | 00:00:00 | |
| OM5KV | 2026-09-02 18:43:43 | 44.79883 | 21.06116 | 0° | 0km/h | 30543m | 5.1m/s | -43.4°C | 0.0% | 0hPa | 5.4V | 00:00:00 | 00:00:00 | 00:00:00 | |
| OM5KV | 2026-09-02 18:43:36 | 44.79881 | 21.06095 | 247° | 22km/h | 30490m | 7.6m/s | -43.4°C | 0.0% | 0hPa | 5.4V | 00:00:00 | 00:00:00 | 00:00:00 | |
| OM5KV | 2026-09-02 18:43:30 | 44.79891 | 21.06102 | 59° | 24km/h | 30448m | 8.7m/s | -43.5°C | 0.0% | 0hPa | 5.4V | 00:00:00 | 00:00:00 | 00:00:00 | |
| OM5KV | 2026-09-02 18:43:24 | 44.79871 | 21.06103 | 195° | 13km/h | 30404m | 9.9m/s | -43.3°C | 0.0% | 0hPa | 5.4V | 00:00:00 | 00:00:00 | 00:00:00 | |
| OM5KV | 2026-09-02 18:43:18 | 44.79881 | 21.06093 | 286° | 9km/h | 30360m | 10.1m/s | -43.2°C | 0.0% | 0hPa | 5.4V | 00:00:00 | 00:00:00 | 00:00:00 | |
| OM5KV | 2026-09-02 18:43:12 | 44.79874 | 21.06132 | 214° | 16km/h | 30317m | 10.6m/s | -43.0°C | 0.0% | 0hPa | 5.4V | 00:00:00 | 00:00:00 | 00:00:00 | |
| OM5KV | 2026-09-02 18:43:07 | 44.79891 | 21.06134 | 304° | 7km/h | 30283m | 4.8m/s | -43.0°C | 0.0% | 0hPa | 5.4V | 00:00:00 | 00:00:00 | 00:00:00 | |
| OM5KV | 2026-09-02 18:43:01 | 44.79887 | 21.06183 | 246° | 20km/h | 30240m | 5.2m/s | -43.2°C | 0.0% | 0hPa | 5.4V | 00:00:00 | 00:00:00 | 00:00:00 | |
| OM5KV | 2026-09-02 18:42:56 | 44.79914 | 21.06185 | 144° | 15km/h | 30201m | 7.6m/s | -43.4°C | 0.0% | 0hPa | 5.4V | 00:00:00 | 00:00:00 | 00:00:00 | |
| OM5KV | 2026-09-02 18:42:45 | 44.79942 | 21.06237 | 109° | 7km/h | 30124m | 8.6m/s | -43.7°C | 0.0% | 0hPa | 5.4V | 00:00:00 | 00:00:00 | 00:00:00 | |
| OM5KV | 2026-09-02 18:42:40 | 44.79953 | 21.06241 | 195° | 22km/h | 30093m | 7.8m/s | -43.8°C | 0.0% | 0hPa | 5.4V | 00:00:00 | 00:00:00 | 00:00:00 | |
| OM5KV | 2026-09-02 18:42:34 | 44.79978 | 21.06261 | 296° | 18km/h | 30052m | 7.3m/s | -43.8°C | 0.0% | 0hPa | 5.4V | 00:00:00 | 00:00:00 | 00:00:00 | |
| OM5KV | 2026-09-02 18:42:28 | 44.79980 | 21.06264 | 199° | 24km/h | 30009m | 8.6m/s | -44.1°C | 0.0% | 0hPa | 5.4V | 00:00:00 | 00:00:00 | 00:00:00 | |
| OM5KV | 2026-09-02 18:42:17 | 44.80004 | 21.06281 | 196° | 15km/h | 29932m | 8.8m/s | -44.4°C | 0.0% | 0hPa | 5.4V | 00:00:00 | 00:00:00 | 00:00:00 | |
| OE3JTB-15 | 2026-09-02 18:42:12 | 44.80034 | 21.06292 | 250° | 20km/h | 29899m | 5.0m/s | -44.0°C | 0% | 0hPa | 5.4V | 00:00:00 | 00:00:00 | 00:00:00 | |
| OM5KV | 2026-09-02 18:42:06 | 44.80026 | 21.06307 | 229° | 15km/h | 29858m | 5.8m/s | -44.3°C | 0.0% | 0hPa | 5.4V | 00:00:00 | 00:00:00 | 00:00:00 | |
| OM5KV | 2026-09-02 18:42:01 | 44.80051 | 21.06315 | 200° | 18km/h | 29823m | 6.6m/s | -44.2°C | 0.0% | 0hPa | 5.4V | 00:00:00 | 00:00:00 | 00:00:00 | |
| OM5KV | 2026-09-02 18:41:55 | 44.80051 | 21.06332 | 332° | 16km/h | 29783m | 4.7m/s | -44.0°C | 0.0% | 0hPa | 5.4V | 00:00:00 | 00:00:00 | 00:00:00 | |
| OM5KV | 2026-09-02 18:41:50 | 44.80066 | 21.06342 | 190° | 35km/h | 29752m | 2.2m/s | -44.0°C | 0.0% | 0hPa | 5.4V | 00:00:00 | 00:00:00 | 00:00:00 | |
| OE3JTB-15 | 2026-09-02 18:41:42 | 44.80067 | 21.06371 | 126° | 20km/h | 29699m | 5.9m/s | -43.4°C | 0% | 0hPa | 5.4V | 00:00:00 | 00:00:00 | 00:00:00 | |
| OM5KV | 2026-09-02 18:41:33 | 44.80107 | 21.06399 | 208° | 9km/h | 29638m | 6.5m/s | -43.7°C | 0.0% | 0hPa | 5.4V | 00:00:00 | 00:00:00 | 00:00:00 | |
| OM5KV | 2026-09-02 18:41:28 | 44.80127 | 21.06395 | 169° | 13km/h | 29606m | 5.4m/s | -43.6°C | 0.0% | 0hPa | 5.4V | 00:00:00 | 00:00:00 | 00:00:00 | |
| OM5KV | 2026-09-02 18:41:23 | 44.80141 | 21.06429 | 247° | 22km/h | 29572m | 5.7m/s | -43.5°C | 0.0% | 0hPa | 5.4V | 00:00:00 | 00:00:00 | 00:00:00 | |
| OM5KV | 2026-09-02 18:41:17 | 44.80157 | 21.06421 | 181° | 26km/h | 29532m | 7.1m/s | -43.6°C | 0.0% | 0hPa | 5.4V | 00:00:00 | 00:00:00 | 00:00:00 | |
| OE3JTB-15 | 2026-09-02 18:41:13 | 44.80179 | 21.06449 | 263° | 13km/h | 29504m | 6.4m/s | -43.2°C | 0% | 0hPa | 5.4V | 00:00:00 | 00:00:00 | 00:00:00 | |
| OM5KV | 2026-09-02 18:41:12 | 44.80179 | 21.06456 | 285° | 15km/h | 29498m | 5.9m/s | -43.7°C | 0.0% | 0hPa | 5.4V | 00:00:00 | 00:00:00 | 00:00:00 | |
| OM5KV | 2026-09-02 18:41:07 | 44.80188 | 21.06447 | 150° | 13km/h | 29464m | 8.1m/s | -43.9°C | 0.0% | 0hPa | 5.4V | 00:00:00 | 00:00:00 | 00:00:00 | |
| OM5KV | 2026-09-02 18:40:56 | 44.80204 | 21.06465 | 120° | 9km/h | 29387m | 7.7m/s | -44.4°C | 0.0% | 0hPa | 5.4V | 00:00:00 | 00:00:00 | 00:00:00 | |
| OM5KV | 2026-09-02 18:40:50 | 44.80206 | 21.06458 | 352° | 16km/h | 29349m | 5.4m/s | -44.2°C | 0.0% | 0hPa | 5.4V | 00:00:00 | 00:00:00 | 00:00:00 | |
| OE3JTB-15 | 2026-09-02 18:40:44 | 44.80197 | 21.06457 | 50° | 20km/h | 29305m | 6.7m/s | -43.8°C | 0% | 0hPa | 5.4V | 00:00:00 | 00:00:00 | 00:00:00 | |
| OM5KV | 2026-09-02 18:40:39 | 44.80190 | 21.06455 | 294° | 7km/h | 29273m | 3.9m/s | -44.2°C | 0.0% | 0hPa | 5.4V | 00:00:00 | 00:00:00 | 00:00:00 | |
| OM5KV | 2026-09-02 18:40:33 | 44.80173 | 21.06454 | 66° | 5km/h | 29232m | 7.7m/s | -44.3°C | 0.0% | 0hPa | 5.4V | 00:00:00 | 00:00:00 | 00:00:00 | |
| OM5KV | 2026-09-02 18:40:28 | 44.80179 | 21.06450 | 350° | 13km/h | 29198m | 7.0m/s | -44.3°C | 0.0% | 0hPa | 5.4V | 00:00:00 | 00:00:00 | 00:00:00 | |
| OM5KV | 2026-09-02 18:40:21 | 44.80159 | 21.06458 | 285° | 15km/h | 29151m | 5.7m/s | -44.2°C | 0.0% | 0hPa | 5.4V | 00:00:00 | 00:00:00 | 00:00:00 | |
| OM5KV | 2026-09-02 18:40:15 | 44.80171 | 21.06463 | 104° | 5km/h | 29112m | 6.8m/s | -44.4°C | 0.0% | 0hPa | 5.4V | 00:00:00 | 00:00:00 | 00:00:00 | |
| OM5KV | 2026-09-02 18:40:10 | 44.80168 | 21.06477 | 233° | 7km/h | 29076m | 5.7m/s | -44.8°C | 0.0% | 0hPa | 5.4V | 00:00:00 | 00:00:00 | 00:00:00 | |
| OM5KV | 2026-09-02 18:40:04 | 44.80184 | 21.06495 | 195° | 9km/h | 29036m | 7.4m/s | -44.9°C | 0.0% | 0hPa | 5.4V | 00:00:00 | 00:00:00 | 00:00:00 | |
| OM5KV | 2026-09-02 18:39:57 | 44.80195 | 21.06503 | 239° | 18km/h | 28986m | 8.4m/s | -45.1°C | 0.0% | 0hPa | 5.4V | 00:00:00 | 00:00:00 | 00:00:00 | |
| OM5KV | 2026-09-02 18:39:52 | 44.80205 | 21.06516 | 348° | 11km/h | 28957m | 6.9m/s | -45.1°C | 0.0% | 0hPa | 5.4V | 00:00:00 | 00:00:00 | 00:00:00 | |
| OM5KV | 2026-09-02 18:39:47 | 44.80196 | 21.06512 | 126° | 15km/h | 28925m | 5.2m/s | -45.2°C | 0.0% | 0hPa | 5.4V | 00:00:00 | 00:00:00 | 00:00:00 | |
| OM5KV | 2026-09-02 18:39:41 | 44.80195 | 21.06508 | 10° | 4km/h | 28883m | 4.7m/s | -45.2°C | 0.0% | 0hPa | 5.4V | 00:00:00 | 00:00:00 | 00:00:00 | |
| OM5KV | 2026-09-02 18:39:36 | 44.80195 | 21.06511 | 165° | 7km/h | 28849m | 6.8m/s | -45.6°C | 0.0% | 0hPa | 5.4V | 00:00:00 | 00:00:00 | 00:00:00 | |
| OM5KV | 2026-09-02 18:39:30 | 44.80190 | 21.06486 | 311° | 9km/h | 28807m | 6.7m/s | -45.7°C | 0.0% | 0hPa | 5.4V | 00:00:00 | 00:00:00 | 00:00:00 | |
| OM5KV | 2026-09-02 18:39:25 | 44.80187 | 21.06494 | 0° | 0km/h | 28773m | 8.2m/s | -45.7°C | 0.0% | 0hPa | 5.4V | 00:00:00 | 00:00:00 | 00:00:00 | |
| OM5KV | 2026-09-02 18:39:20 | 44.80174 | 21.06478 | 65° | 15km/h | 28739m | 5.9m/s | -45.6°C | 0.0% | 0hPa | 5.4V | 00:00:00 | 00:00:00 | 00:00:00 | |
| OM5KV | 2026-09-02 18:39:06 | 44.80137 | 21.06481 | 40° | 13km/h | 28645m | 3.7m/s | -46.1°C | 0.0% | 0hPa | 5.4V | 00:00:00 | 00:00:00 | 00:00:00 | |
| OM5KV | 2026-09-02 18:39:00 | 44.80120 | 21.06477 | 52° | 24km/h | 28601m | 5.9m/s | -46.1°C | 0.0% | 0hPa | 5.4V | 00:00:00 | 00:00:00 | 00:00:00 | |
| OE3JTB-15 | 2026-09-02 18:38:06 | 44.79997 | 21.06466 | 193° | 16km/h | 28230m | 8.1m/s | -46.8°C | 0% | 0hPa | 5.4V | 00:00:00 | 00:00:00 | 00:00:00 | |
| OE3JTB-15 | 2026-09-02 18:37:08 | 44.79991 | 21.06493 | 240° | 11km/h | 27820m | 7.7m/s | -46.3°C | 0% | 0hPa | 5.4V | 00:00:00 | 00:00:00 | 00:00:00 | |
| OE3JTB-15 | 2026-09-02 18:36:38 | 44.80019 | 21.06459 | 32° | 11km/h | 27621m | 8.1m/s | -46.3°C | 0% | 0hPa | 5.4V | 00:00:00 | 00:00:00 | 00:00:00 | |
| OE3JTB-15 | 2026-09-02 18:36:00 | 44.80022 | 21.06440 | 311° | 18km/h | 27381m | 5.9m/s | -46.7°C | 0% | 0hPa | 5.4V | 00:00:00 | 00:00:00 | 00:00:00 | |
| OE3JTB-15 | 2026-09-02 18:35:31 | 44.79990 | 21.06414 | 179° | 15km/h | 27196m | 6.7m/s | -47.4°C | 0% | 0hPa | 5.4V | 00:00:00 | 00:00:00 | 00:00:00 | |
| OE3JTB-15 | 2026-09-02 18:35:02 | 44.79976 | 21.06393 | 288° | 11km/h | 27010m | 5.6m/s | -47.2°C | 0% | 0hPa | 5.4V | 00:00:00 | 00:00:00 | 00:00:00 | |
| OE3JTB-15 | 2026-09-02 18:34:33 | 44.80009 | 21.06491 | 204° | 24km/h | 26823m | 7.4m/s | -46.6°C | 0% | 0hPa | 5.5V | 00:00:00 | 00:00:00 | 00:00:00 | |
| OE3JTB-15 | 2026-09-02 18:32:07 | 44.80236 | 21.06572 | 176° | 13km/h | 25818m | 8.3m/s | -48.6°C | 0% | 0hPa | 5.5V | 00:00:00 | 00:00:00 | 00:00:00 | |
| OE3JTB-15 | 2026-09-02 18:31:38 | 44.80291 | 21.06597 | 249° | 24km/h | 25618m | 4.9m/s | -49.0°C | 0% | 0hPa | 5.5V | 00:00:00 | 00:00:00 | 00:00:00 | |
| OE3JTB-15 | 2026-09-02 18:31:09 | 44.80372 | 21.06782 | 181° | 29km/h | 25428m | 6.4m/s | -48.8°C | 0% | 0hPa | 5.5V | 00:00:00 | 00:00:00 | 00:00:00 | |
| OE3JTB-15 | 2026-09-02 18:30:04 | 44.80767 | 21.06819 | 144° | 13km/h | 25017m | 4.5m/s | -48.6°C | 0% | 0hPa | 5.5V | 00:00:00 | 00:00:00 | 00:00:00 | |
| OE3JTB-15 | 2026-09-02 18:25:54 | 44.81218 | 21.06254 | 348° | 18km/h | 23427m | 5.0m/s | -53.1°C | 0% | 0hPa | 5.5V | 00:00:00 | 00:00:00 | 00:00:00 | |
| OE3JTB-15 | 2026-09-02 18:25:24 | 44.81128 | 21.06246 | 185° | 11km/h | 23242m | 5.8m/s | -53.2°C | 0% | 0hPa | 5.5V | 00:00:00 | 00:00:00 | 00:00:00 | |
| OE3JTB-15 | 2026-09-02 18:24:54 | 44.81149 | 21.06247 | 116° | 13km/h | 23051m | 6.2m/s | -53.4°C | 0% | 0hPa | 5.5V | 00:00:00 | 00:00:00 | 00:00:00 | |
| OE3JTB-15 | 2026-09-02 18:24:24 | 44.81207 | 21.06226 | 201° | 15km/h | 22861m | 8.2m/s | -52.9°C | 0% | 0hPa | 5.5V | 00:00:00 | 00:00:00 | 00:00:00 | |
| OE3JTB-15 | 2026-09-02 18:23:55 | 44.81247 | 21.06117 | 243° | 11km/h | 22678m | 8.5m/s | -52.9°C | 0% | 0hPa | 5.6V | 00:00:00 | 00:00:00 | 00:00:00 | |
| OE3JTB-15 | 2026-09-02 18:23:26 | 44.81297 | 21.06080 | 120° | 13km/h | 22497m | 6.5m/s | -53.1°C | 0% | 0hPa | 5.6V | 00:00:00 | 00:00:00 | 00:00:00 | |
| OE3JTB-15 | 2026-09-02 18:22:57 | 44.81352 | 21.06067 | 188° | 20km/h | 22318m | 4.5m/s | -52.5°C | 0% | 0hPa | 5.6V | 00:00:00 | 00:00:00 | 00:00:00 | |
| OE3JTB-15 | 2026-09-02 18:22:28 | 44.81473 | 21.06177 | 217° | 31km/h | 22140m | 5.4m/s | -52.6°C | 0% | 0hPa | 5.6V | 00:00:00 | 00:00:00 | 00:00:00 | |
| OE3JTB-15 | 2026-09-02 18:21:57 | 44.81693 | 21.06219 | 173° | 37km/h | 21944m | 7.3m/s | -52.8°C | 0% | 0hPa | 5.6V | 00:00:00 | 00:00:00 | 00:00:00 | |
| OE3JTB-15 | 2026-09-02 18:20:58 | 44.82064 | 21.05864 | 111° | 15km/h | 21587m | 6.0m/s | -54.1°C | 0% | 0hPa | 5.6V | 00:00:00 | 00:00:00 | 00:00:00 | |
| OE3JTB-15 | 2026-09-02 18:20:29 | 44.82094 | 21.05727 | 87° | 11km/h | 21408m | 5.0m/s | -53.8°C | 0% | 0hPa | 5.6V | 00:00:00 | 00:00:00 | 00:00:00 | |
| OE3JTB-15 | 2026-09-02 18:19:59 | 44.82086 | 21.05671 | 8° | 16km/h | 21227m | 4.8m/s | -53.7°C | 0% | 0hPa | 5.6V | 00:00:00 | 00:00:00 | 00:00:00 | |
| OE3JTB-15 | 2026-09-02 18:19:29 | 44.82093 | 21.05519 | 95° | 24km/h | 21044m | 6.5m/s | -53.7°C | 0% | 0hPa | 5.6V | 00:00:00 | 00:00:00 | 00:00:00 | |
| OE3JTB-15 | 2026-09-02 18:19:00 | 44.82047 | 21.05295 | 62° | 24km/h | 20868m | 7.3m/s | -53.7°C | 0% | 0hPa | 5.6V | 00:00:00 | 00:00:00 | 00:00:00 | |
| OE3JTB-15 | 2026-09-02 18:17:40 | 44.81778 | 21.04676 | 44° | 16km/h | 20386m | 5.4m/s | -53.0°C | 0% | 0hPa | 5.6V | 00:00:00 | 00:00:00 | 00:00:00 | |
| OE3JTB-15 | 2026-09-02 18:17:11 | 44.81738 | 21.04548 | 91° | 26km/h | 20217m | 6.1m/s | -53.8°C | 0% | 0hPa | 5.6V | 00:00:00 | 00:00:00 | 00:00:00 | |
| OE3JTB-15 | 2026-09-02 18:16:41 | 44.81725 | 21.04312 | 89° | 24km/h | 20035m | 5.4m/s | -54.1°C | 0% | 0hPa | 5.6V | 00:00:00 | 00:00:00 | 00:00:00 | |
| OE3JTB-15 | 2026-09-02 18:16:12 | 44.81696 | 21.04075 | 81° | 35km/h | 19868m | 4.1m/s | -54.1°C | 0% | 0hPa | 5.6V | 00:00:00 | 00:00:00 | 00:00:00 | |
| OM5KV | 2026-09-02 18:13:54 | 44.81369 | 21.03175 | 68° | 16km/h | 19067m | 5.6m/s | -56.8°C | 0.6% | 0hPa | 5.7V | 00:00:00 | 00:00:00 | 00:00:00 | |
| OM5KV | 2026-09-02 18:13:43 | 44.81339 | 21.03154 | 34° | 7km/h | 19001m | 4.8m/s | -56.4°C | 0.6% | 0hPa | 5.7V | 00:00:00 | 00:00:00 | 00:00:00 | |
| OM5KV | 2026-09-02 18:13:37 | 44.81329 | 21.03152 | 15° | 16km/h | 18966m | 4.1m/s | -56.3°C | 0.6% | 0hPa | 5.7V | 00:00:00 | 00:00:00 | 00:00:00 | |
| OM5KV | 2026-09-02 18:13:31 | 44.81311 | 21.03146 | 79° | 4km/h | 18933m | 5.0m/s | -56.5°C | 0.7% | 0hPa | 5.7V | 00:00:00 | 00:00:00 | 00:00:00 | |
| OM5KV | 2026-09-02 18:13:25 | 44.81311 | 21.03145 | 0° | 0km/h | 18896m | 7.1m/s | -56.4°C | 0.7% | 0hPa | 5.7V | 00:00:00 | 00:00:00 | 00:00:00 | |
| OM5KV | 2026-09-02 18:13:14 | 44.81332 | 21.03141 | 102° | 4km/h | 18828m | 5.0m/s | -56.1°C | 0.7% | 0hPa | 5.7V | 00:00:00 | 00:00:00 | 00:00:00 | |
| OM5KV | 2026-09-02 18:13:09 | 44.81345 | 21.03120 | 157° | 24km/h | 18799m | 6.3m/s | -56.0°C | 0.8% | 0hPa | 5.7V | 00:00:00 | 00:00:00 | 00:00:00 | |
| OM5KV | 2026-09-02 18:13:02 | 44.81372 | 21.03098 | 138° | 18km/h | 18756m | 6.3m/s | -55.8°C | 0.8% | 0hPa | 5.7V | 00:00:00 | 00:00:00 | 00:00:00 | |
| OM5KV | 2026-09-02 18:12:58 | 44.81389 | 21.03082 | 150° | 24km/h | 18731m | 5.2m/s | -55.7°C | 0.7% | 0hPa | 5.7V | 00:00:00 | 00:00:00 | 00:00:00 | |
| OM5KV | 2026-09-02 18:12:55 | 44.81402 | 21.03067 | 130° | 26km/h | 18714m | 5.9m/s | -55.6°C | 0.7% | 0hPa | 5.7V | 00:00:00 | 00:00:00 | 00:00:00 | |
| OM5KV | 2026-09-02 18:12:50 | 44.81429 | 21.03033 | 128° | 24km/h | 18683m | 5.4m/s | -55.4°C | 0.7% | 0hPa | 5.7V | 00:00:00 | 00:00:00 | 00:00:00 | |
| OM5KV | 2026-09-02 18:12:47 | 44.81440 | 21.03013 | 126° | 22km/h | 18664m | 7.1m/s | -55.4°C | 0.7% | 0hPa | 5.7V | 00:00:00 | 00:00:00 | 00:00:00 | |
| OM5KV | 2026-09-02 18:12:46 | 44.81442 | 21.03007 | 126° | 22km/h | 18657m | 6.4m/s | -55.4°C | 0.7% | 0hPa | 5.7V | 00:00:00 | 00:00:00 | 00:00:00 | |
| OM5KV | 2026-09-02 18:12:41 | 44.81471 | 21.02969 | 138° | 38km/h | 18626m | 7.0m/s | -55.6°C | 0.8% | 0hPa | 5.7V | 00:00:00 | 00:00:00 | 00:00:00 | |
| OM5KV | 2026-09-02 18:12:40 | 44.81478 | 21.02960 | 133° | 31km/h | 18621m | 5.0m/s | -55.7°C | 0.8% | 0hPa | 5.7V | 00:00:00 | 00:00:00 | 00:00:00 | |
| OM5KV | 2026-09-02 18:12:35 | 44.81499 | 21.02906 | 116° | 38km/h | 18589m | 6.8m/s | -55.7°C | 0.8% | 0hPa | 5.7V | 00:00:00 | 00:00:00 | 00:00:00 | |
| OM5KV | 2026-09-02 18:12:34 | 44.81503 | 21.02895 | 117° | 35km/h | 18582m | 6.5m/s | -55.7°C | 0.8% | 0hPa | 5.7V | 00:00:00 | 00:00:00 | 00:00:00 | |
| OM5KV | 2026-09-02 18:12:29 | 44.81527 | 21.02842 | 118° | 35km/h | 18553m | 6.4m/s | -55.5°C | 0.8% | 0hPa | 5.7V | 00:00:00 | 00:00:00 | 00:00:00 | |
| OM5KV | 2026-09-02 18:12:28 | 44.81530 | 21.02831 | 113° | 31km/h | 18547m | 5.4m/s | -55.5°C | 0.9% | 0hPa | 5.7V | 00:00:00 | 00:00:00 | 00:00:00 | |
| OM5KV | 2026-09-02 18:12:26 | 44.81536 | 21.02810 | 109° | 37km/h | 18536m | 6.6m/s | -55.4°C | 0.9% | 0hPa | 5.7V | 00:00:00 | 00:00:00 | 00:00:00 | |
| OM5KV | 2026-09-02 18:12:22 | 44.81549 | 21.02750 | 107° | 47km/h | 18512m | 5.9m/s | -55.4°C | 0.9% | 0hPa | 5.7V | 00:00:00 | 00:00:00 | 00:00:00 | |
| OM5KV | 2026-09-02 18:12:21 | 44.81553 | 21.02734 | 110° | 47km/h | 18506m | 6.5m/s | -55.4°C | 0.9% | 0hPa | 5.7V | 00:00:00 | 00:00:00 | 00:00:00 | |
| OE3JTB-15 | 2026-09-02 18:12:20 | 44.81557 | 21.02719 | 115° | 35km/h | 18502m | 3.7m/s | -54.6°C | 0% | 0hPa | 5.7V | 00:00:00 | 00:00:00 | 00:00:00 | |
| OM5KV | 2026-09-02 18:12:16 | 44.81570 | 21.02680 | 113° | 22km/h | 18478m | 5.4m/s | -55.3°C | 0.9% | 0hPa | 5.7V | 00:00:00 | 00:00:00 | 00:00:00 | |
| OM5KV | 2026-09-02 18:12:15 | 44.81573 | 21.02671 | 108° | 29km/h | 18472m | 6.1m/s | -55.3°C | 0.9% | 0hPa | 5.7V | 00:00:00 | 00:00:00 | 00:00:00 | |
| OM5KV | 2026-09-02 18:12:09 | 44.81582 | 21.02591 | 111° | 40km/h | 18437m | 6.3m/s | -55.2°C | 71.1% | 0hPa | 5.7V | 00:00:00 | 00:00:00 | 00:00:00 | |
| OM5KV | 2026-09-02 18:11:53 | 44.81595 | 21.02397 | 71° | 40km/h | 18342m | 6.1m/s | -55.0°C | 1.1% | 0hPa | 5.7V | 00:00:00 | 00:00:00 | 00:00:00 | |
| OE3JTB-15 | 2026-09-02 18:11:51 | 44.81585 | 21.02373 | 55° | 33km/h | 18329m | 6.2m/s | -54.2°C | 0% | 0hPa | 5.7V | 00:00:00 | 00:00:00 | 00:00:00 | |
| OM5KV | 2026-09-02 18:11:46 | 44.81573 | 21.02323 | 101° | 24km/h | 18299m | 7.0m/s | -54.8°C | 1.1% | 0hPa | 5.7V | 00:00:00 | 00:00:00 | 00:00:00 | |
| OM5KV | 2026-09-02 18:11:45 | 44.81575 | 21.02315 | 99° | 22km/h | 18294m | 4.6m/s | -54.7°C | 1.1% | 0hPa | 5.7V | 00:00:00 | 00:00:00 | 00:00:00 | |
| OM5KV | 2026-09-02 18:11:42 | 44.81571 | 21.02286 | 62° | 37km/h | 18278m | 4.9m/s | -54.6°C | 1.1% | 0hPa | 5.7V | 00:00:00 | 00:00:00 | 00:00:00 | |
| OM5KV | 2026-09-02 18:11:36 | 44.81537 | 21.02223 | 71° | 35km/h | 18240m | 7.0m/s | -54.5°C | 1.1% | 0hPa | 5.7V | 00:00:00 | 00:00:00 | 00:00:00 | |
| OM5KV | 2026-09-02 18:11:30 | 44.81522 | 21.02168 | 39° | 42km/h | 18203m | 5.9m/s | -54.3°C | 1.1% | 0hPa | 5.7V | 00:00:00 | 00:00:00 | 00:00:00 | |
| OM5KV | 2026-09-02 18:11:27 | 44.81497 | 21.02143 | 44° | 35km/h | 18183m | 6.0m/s | -54.1°C | 1.0% | 0hPa | 5.7V | 00:00:00 | 00:00:00 | 00:00:00 | |
| OM5KV | 2026-09-02 18:11:24 | 44.81483 | 21.02115 | 63° | 27km/h | 18162m | 7.2m/s | -54.0°C | 1.0% | 0hPa | 5.7V | 00:00:00 | 00:00:00 | 00:00:00 | |
| OE3JTB-15 | 2026-09-02 18:11:22 | 44.81477 | 21.02100 | 62° | 31km/h | 18148m | 7.2m/s | -53.2°C | 0% | 0hPa | 5.7V | 00:00:00 | 00:00:00 | 00:00:00 | |
| OM5KV | 2026-09-02 18:11:21 | 44.81475 | 21.02093 | 64° | 24km/h | 18140m | 7.9m/s | -53.9°C | 1.0% | 0hPa | 5.7V | 00:00:00 | 00:00:00 | 00:00:00 | |
| OM5KV | 2026-09-02 18:11:18 | 44.81457 | 21.02069 | 30° | 42km/h | 18118m | 9.2m/s | -53.9°C | 1.0% | 0hPa | 5.7V | 00:00:00 | 00:00:00 | 00:00:00 | |
| OM5KV | 2026-09-02 18:11:17 | 44.81447 | 21.02063 | 17° | 46km/h | 18112m | 5.9m/s | -54.0°C | 1.1% | 0hPa | 5.7V | 00:00:00 | 00:00:00 | 00:00:00 | |
| OM5KV | 2026-09-02 18:11:14 | 44.81418 | 21.02051 | 30° | 31km/h | 18091m | 7.2m/s | -54.4°C | 1.1% | 0hPa | 5.7V | 00:00:00 | 00:00:00 | 00:00:00 | |
| OM5KV | 2026-09-02 18:11:11 | 44.81403 | 21.02027 | 69° | 31km/h | 18073m | 4.8m/s | -54.4°C | 1.1% | 0hPa | 5.7V | 00:00:00 | 00:00:00 | 00:00:00 | |
| OM5KV | 2026-09-02 18:11:08 | 44.81394 | 21.02000 | 49° | 27km/h | 18056m | 5.1m/s | -54.3°C | 1.1% | 0hPa | 5.7V | 00:00:00 | 00:00:00 | 00:00:00 | |
| OM5KV | 2026-09-02 18:11:05 | 44.81372 | 21.01985 | 9° | 33km/h | 18035m | 7.5m/s | -54.4°C | 1.1% | 0hPa | 5.7V | 00:00:00 | 00:00:00 | 00:00:00 | |
| OM5KV | 2026-09-02 18:11:00 | 44.81340 | 21.01966 | 49° | 31km/h | 18005m | 7.3m/s | -54.3°C | 1.2% | 0hPa | 5.7V | 00:00:00 | 00:00:00 | 00:00:00 | |
| OM5KV | 2026-09-02 18:10:59 | 44.81335 | 21.01958 | 56° | 31km/h | 17998m | 6.2m/s | -54.3°C | 1.2% | 0hPa | 5.7V | 00:00:00 | 00:00:00 | 00:00:00 | |
| OM5KV | 2026-09-02 18:10:57 | 44.81327 | 21.01936 | 67° | 37km/h | 17987m | 6.5m/s | -54.3°C | 1.2% | 0hPa | 5.7V | 00:00:00 | 00:00:00 | 00:00:00 | |
| OM5KV | 2026-09-02 18:10:54 | 44.81319 | 21.01907 | 75° | 15km/h | 17968m | 7.5m/s | -54.2°C | 1.1% | 0hPa | 5.7V | 00:00:00 | 00:00:00 | 00:00:00 | |
| OM5KV | 2026-09-02 18:10:51 | 44.81314 | 21.01905 | 16° | 13km/h | 17952m | 6.0m/s | -54.2°C | 1.2% | 0hPa | 5.7V | 00:00:00 | 00:00:00 | 00:00:00 | |
| OM5KV | 2026-09-02 18:10:48 | 44.81306 | 21.01883 | 84° | 35km/h | 17932m | 7.6m/s | -54.3°C | 1.2% | 0hPa | 5.7V | 00:00:00 | 00:00:00 | 00:00:00 | |
| OM5KV | 2026-09-02 18:10:43 | 44.81301 | 21.01829 | 57° | 20km/h | 17903m | 5.3m/s | -54.6°C | 1.3% | 0hPa | 5.7V | 00:00:00 | 00:00:00 | 00:00:00 | |
| OM5KV | 2026-09-02 18:10:42 | 44.81299 | 21.01824 | 52° | 13km/h | 17897m | 6.1m/s | -54.7°C | 1.3% | 0hPa | 5.7V | 00:00:00 | 00:00:00 | 00:00:00 | |
| OM5KV | 2026-09-02 18:10:39 | 44.81298 | 21.01816 | 110° | 13km/h | 17879m | 5.9m/s | -54.8°C | 1.3% | 0hPa | 5.7V | 00:00:00 | 00:00:00 | 00:00:00 | |
| OM5KV | 2026-09-02 18:10:37 | 44.81301 | 21.01802 | 106° | 26km/h | 17869m | 6.0m/s | -54.7°C | 1.3% | 0hPa | 5.7V | 00:00:00 | 00:00:00 | 00:00:00 | |
| OM5KV | 2026-09-02 18:10:36 | 44.81303 | 21.01793 | 109° | 31km/h | 17862m | 6.7m/s | -54.6°C | 1.3% | 0hPa | 5.7V | 00:00:00 | 00:00:00 | 00:00:00 | |
| LZ4TU-5 | 2026-09-02 18:10:34 | 44.81307 | 21.01771 | 100° | 33km/h | 17850m | 6.7m/s | -54.6°C | 1.3% | 0hPa | 5.7V | 00:00:00 | 00:00:00 | 00:00:00 | |
| OM5KV | 2026-09-02 18:10:33 | 44.81308 | 21.01760 | 92° | 31km/h | 17844m | 5.4m/s | -54.5°C | 1.3% | 0hPa | 5.7V | 00:00:00 | 00:00:00 | 00:00:00 | |
| LZ4TU-5 | 2026-09-02 18:10:29 | 44.81313 | 21.01720 | 118° | 27km/h | 17823m | 5.2m/s | -54.5°C | 1.3% | 0hPa | 5.7V | 00:00:00 | 00:00:00 | 00:00:00 | |
| OM5KV | 2026-09-02 18:10:27 | 44.81319 | 21.01704 | 116° | 24km/h | 17811m | 5.5m/s | -54.4°C | 1.2% | 0hPa | 5.7V | 00:00:00 | 00:00:00 | 00:00:00 | |
| OM5KV | 2026-09-02 18:10:25 | 44.81325 | 21.01687 | 118° | 31km/h | 17799m | 5.5m/s | -54.4°C | 1.2% | 0hPa | 5.7V | 00:00:00 | 00:00:00 | 00:00:00 | |
| OE3JTB-15 | 2026-09-02 18:10:24 | 44.81328 | 21.01677 | 111° | 35km/h | 17793m | 6.1m/s | -53.6°C | 0% | 0hPa | 5.7V | 00:00:00 | 00:00:00 | 00:00:00 | |
| OM5KV | 2026-09-02 18:10:22 | 44.81332 | 21.01654 | 99° | 35km/h | 17782m | 4.2m/s | -54.4°C | 1.2% | 0hPa | 5.7V | 00:00:00 | 00:00:00 | 00:00:00 | |
| OM5KV | 2026-09-02 18:10:20 | 44.81335 | 21.01629 | 107° | 38km/h | 17771m | 5.7m/s | -54.5°C | 1.2% | 0hPa | 5.7V | 00:00:00 | 00:00:00 | 00:00:00 | |
| OM5KV | 2026-09-02 18:10:19 | 44.81338 | 21.01616 | 112° | 40km/h | 17766m | 5.0m/s | -54.5°C | 1.2% | 0hPa | 5.7V | 00:00:00 | 00:00:00 | 00:00:00 | |
| OM5KV | 2026-09-02 18:10:16 | 44.81347 | 21.01584 | 114° | 22km/h | 17748m | 5.9m/s | -54.5°C | 1.2% | 0hPa | 5.7V | 00:00:00 | 00:00:00 | 00:00:00 | |
| OM5KV | 2026-09-02 18:10:15 | 44.81350 | 21.01578 | 122° | 20km/h | 17742m | 6.7m/s | -54.6°C | 1.2% | 0hPa | 5.7V | 00:00:00 | 00:00:00 | 00:00:00 | |
| OM5KV | 2026-09-02 18:10:09 | 44.81365 | 21.01525 | 111° | 46km/h | 17710m | 6.3m/s | -54.5°C | 1.1% | 0hPa | 5.7V | 00:00:00 | 00:00:00 | 00:00:00 | |
| OM5KV | 2026-09-02 18:10:03 | 44.81395 | 21.01448 | 126° | 31km/h | 17677m | 5.5m/s | -54.9°C | 1.2% | 0hPa | 5.7V | 00:00:00 | 00:00:00 | 00:00:00 | |
| OM5KV | 2026-09-02 18:09:59 | 44.81405 | 21.01416 | 113° | 33km/h | 17654m | 4.8m/s | -55.4°C | 1.3% | 0hPa | 5.7V | 00:00:00 | 00:00:00 | 00:00:00 | |
| OE3JTB-15 | 2026-09-02 18:09:53 | 44.81441 | 21.01319 | 118° | 47km/h | 17624m | 2.9m/s | -55.0°C | 0% | 0hPa | 5.7V | 00:00:00 | 00:00:00 | 00:00:00 | |
| OM5KV | 2026-09-02 18:09:52 | 44.81447 | 21.01302 | 116° | 49km/h | 17620m | 4.1m/s | -55.7°C | 1.4% | 0hPa | 0V | 00:00:00 | 00:00:00 | 00:00:00 | |
| OM5KV | 2026-09-02 18:09:50 | 44.81454 | 21.01277 | 104° | 26km/h | 17606m | 6.9m/s | -55.8°C | 1.4% | 0hPa | 0V | 00:00:00 | 00:00:00 | 00:00:00 | |
| OM5KV | 2026-09-02 18:09:42 | 44.81490 | 21.01163 | 116° | 58km/h | 17563m | 6.2m/s | -55.8°C | 1.3% | 0hPa | 0V | 00:00:00 | 00:00:00 | 00:00:00 | |
| OM5KV | 2026-09-02 18:09:35 | 44.81520 | 21.01050 | 119° | 55km/h | 17526m | 5.1m/s | -56.0°C | 1.3% | 0hPa | 0V | 00:00:00 | 00:00:00 | 00:00:00 | |
| OM5KV | 2026-09-02 18:09:34 | 44.81527 | 21.01031 | 119° | 64km/h | 17520m | 6.6m/s | -55.9°C | 1.3% | 0hPa | 0V | 00:00:00 | 00:00:00 | 00:00:00 | |
| OM5KV | 2026-09-02 18:09:29 | 44.81556 | 21.00931 | 106° | 47km/h | 17496m | 6.4m/s | -55.9°C | 1.3% | 0hPa | 0V | 00:00:00 | 00:00:00 | 00:00:00 | |
| OM5KV | 2026-09-02 18:09:25 | 44.81565 | 21.00878 | 107° | 42km/h | 17477m | 3.2m/s | -56.1°C | 1.3% | 0hPa | 0V | 00:00:00 | 00:00:00 | 00:00:00 | |
| OM5KV | 2026-09-02 18:09:19 | 44.81597 | 21.00743 | 103° | 69km/h | 17442m | 6.7m/s | -56.7°C | 1.4% | 0hPa | 0V | 00:00:00 | 00:00:00 | 00:00:00 | |
| OM5KV | 2026-09-02 18:09:13 | 44.81601 | 21.00650 | 87° | 47km/h | 17410m | 5.0m/s | -56.5°C | 1.3% | 0hPa | 0V | 00:00:00 | 00:00:00 | 00:00:00 | |
| OM5KV | 2026-09-02 18:09:07 | 44.81614 | 21.00515 | 89° | 66km/h | 17374m | 6.5m/s | -56.3°C | 1.2% | 0hPa | 0V | 00:00:00 | 00:00:00 | 00:00:00 | |
| OM5KV | 2026-09-02 18:09:06 | 44.81613 | 21.00493 | 83° | 55km/h | 17367m | 6.7m/s | -56.3°C | 1.2% | 0hPa | 0V | 00:00:00 | 00:00:00 | 00:00:00 | |
| OM5KV | 2026-09-02 18:09:00 | 44.81603 | 21.00403 | 100° | 58km/h | 17332m | 5.7m/s | -57.0°C | 1.3% | 0hPa | 0V | 00:00:00 | 00:00:00 | 00:00:00 | |
| OM5KV | 2026-09-02 18:08:56 | 44.81602 | 21.00316 | 77° | 66km/h | 17302m | 5.0m/s | -58.0°C | 1.5% | 0hPa | 0V | 00:00:00 | 00:00:00 | 00:00:00 | |
| OM5KV | 2026-09-02 18:08:55 | 44.81598 | 21.00293 | 74° | 62km/h | 17295m | 7.8m/s | -58.1°C | 1.5% | 0hPa | 0V | 00:00:00 | 00:00:00 | 00:00:00 | |
| OM5KV | 2026-09-02 18:08:49 | 44.81576 | 21.00171 | 79° | 64km/h | 17259m | 4.8m/s | -58.4°C | 1.7% | 0hPa | 0V | 00:00:00 | 00:00:00 | 00:00:00 | |
| OM5KV | 2026-09-02 18:08:44 | 44.81550 | 21.00060 | 63° | 53km/h | 17230m | 6.8m/s | -58.3°C | 1.7% | 0hPa | 0V | 00:00:00 | 00:00:00 | 00:00:00 | |
| OM5KV | 2026-09-02 18:08:39 | 44.81527 | 20.99977 | 80° | 68km/h | 17202m | 6.6m/s | -58.1°C | 1.8% | 0hPa | 0V | 00:00:00 | 00:00:00 | 00:00:00 | |
| OM5KV | 2026-09-02 18:08:38 | 44.81523 | 20.99953 | 77° | 69km/h | 17195m | 6.8m/s | -58.1°C | 1.8% | 0hPa | 0V | 00:00:00 | 00:00:00 | 00:00:00 | |
| OM5KV | 2026-09-02 18:08:33 | 44.81495 | 20.99849 | 67° | 53km/h | 17168m | 5.5m/s | -57.9°C | 1.8% | 0hPa | 0V | 00:00:00 | 00:00:00 | 00:00:00 | |
| OM5KV | 2026-09-02 18:08:32 | 44.81490 | 20.99833 | 65° | 53km/h | 17163m | 6.1m/s | -57.9°C | 1.8% | 0hPa | 0V | 00:00:00 | 00:00:00 | 00:00:00 | |
| OM5KV | 2026-09-02 18:08:28 | 44.81469 | 20.99770 | 67° | 47km/h | 17142m | 4.2m/s | -57.8°C | 1.8% | 0hPa | 0V | 00:00:00 | 00:00:00 | 00:00:00 | |
| OM5KV | 2026-09-02 18:08:27 | 44.81463 | 20.99754 | 67° | 53km/h | 17136m | 6.4m/s | -57.8°C | 1.8% | 0hPa | 0V | 00:00:00 | 00:00:00 | 00:00:00 | |
| OM5KV | 2026-09-02 18:08:26 | 44.81458 | 20.99735 | 68° | 62km/h | 17131m | 5.3m/s | -57.7°C | 1.8% | 0hPa | 0V | 00:00:00 | 00:00:00 | 00:00:00 | |
| OM5KV | 2026-09-02 18:08:22 | 44.81435 | 20.99654 | 71° | 55km/h | 17108m | 4.9m/s | -57.7°C | 1.8% | 0hPa | 0V | 00:00:00 | 00:00:00 | 00:00:00 | |
| OM5KV | 2026-09-02 18:08:21 | 44.81430 | 20.99636 | 71° | 55km/h | 17102m | 6.3m/s | -57.6°C | 1.8% | 0hPa | 0V | 00:00:00 | 00:00:00 | 00:00:00 | |
| OM5KV | 2026-09-02 18:08:16 | 44.81396 | 20.99545 | 61° | 58km/h | 17074m | 6.3m/s | -57.3°C | 1.8% | 0hPa | 0V | 00:00:00 | 00:00:00 | 00:00:00 | |
| OM5KV | 2026-09-02 18:08:15 | 44.81390 | 20.99527 | 69° | 53km/h | 17068m | 5.9m/s | -57.3°C | 1.8% | 0hPa | 0V | 00:00:00 | 00:00:00 | 00:00:00 | |
| OM5KV | 2026-09-02 18:08:10 | 44.81367 | 20.99434 | 68° | 69km/h | 17036m | 5.0m/s | -57.0°C | 1.8% | 0hPa | 0V | 00:00:00 | 00:00:00 | 00:00:00 | |
| OM5KV | 2026-09-02 18:08:09 | 44.81360 | 20.99410 | 70° | 71km/h | 17029m | 7.5m/s | -56.9°C | 1.8% | 0hPa | 0V | 00:00:00 | 00:00:00 | 00:00:00 | |
| OM5KV | 2026-09-02 18:08:04 | 44.81340 | 20.99316 | 65° | 44km/h | 16997m | 4.8m/s | -56.9°C | 1.8% | 0hPa | 0V | 00:00:00 | 00:00:00 | 00:00:00 | |
| OM5KV | 2026-09-02 18:08:03 | 44.81335 | 20.99302 | 64° | 42km/h | 16991m | 6.5m/s | -56.9°C | 1.8% | 0hPa | 0V | 00:00:00 | 00:00:00 | 00:00:00 | |
| OM5KV | 2026-09-02 18:07:58 | 44.81312 | 20.99219 | 72° | 58km/h | 16960m | 7.0m/s | -56.9°C | 1.8% | 0hPa | 0V | 00:00:00 | 00:00:00 | 00:00:00 | |
| OM5KV | 2026-09-02 18:07:57 | 44.81308 | 20.99199 | 77° | 58km/h | 16952m | 8.2m/s | -57.0°C | 1.9% | 0hPa | 0V | 00:00:00 | 00:00:00 | 00:00:00 | |
| OM5KV | 2026-09-02 18:07:52 | 44.81293 | 20.99101 | 69° | 58km/h | 16921m | 6.6m/s | -57.0°C | 1.9% | 0hPa | 0V | 00:00:00 | 00:00:00 | 00:00:00 | |
| OM5KV | 2026-09-02 18:07:51 | 44.81287 | 20.99082 | 71° | 55km/h | 16914m | 7.2m/s | -57.1°C | 1.9% | 0hPa | 0V | 00:00:00 | 00:00:00 | 00:00:00 | |
| OM5KV | 2026-09-02 18:07:46 | 44.81271 | 20.98982 | 84° | 62km/h | 16885m | 5.7m/s | -57.1°C | 2.0% | 0hPa | 0V | 00:00:00 | 00:00:00 | 00:00:00 | |
| OM5KV | 2026-09-02 18:07:45 | 44.81270 | 20.98961 | 89° | 60km/h | 16878m | 6.5m/s | -57.0°C | 2.0% | 0hPa | 0V | 00:00:00 | 00:00:00 | 00:00:00 | |
| OM5KV | 2026-09-02 18:07:44 | 44.81269 | 20.98940 | 90° | 58km/h | 16873m | 4.5m/s | -57.0°C | 2.0% | 0hPa | 0V | 00:00:00 | 00:00:00 | 00:00:00 | |
| OM5KV | 2026-09-02 18:07:38 | 44.81257 | 20.98814 | 78° | 60km/h | 16838m | 6.2m/s | -56.8°C | 2.0% | 0hPa | 0V | 00:00:00 | 00:00:00 | 00:00:00 | |
| OM5KV | 2026-09-02 18:07:30 | 44.81249 | 20.98664 | 93° | 51km/h | 16792m | 5.2m/s | -56.7°C | 2.0% | 0hPa | 0V | 00:00:00 | 00:00:00 | 00:00:00 | |
| OM5KV | 2026-09-02 18:07:25 | 44.81243 | 20.98566 | 89° | 53km/h | 16764m | 5.1m/s | -56.6°C | 2.0% | 0hPa | 0V | 00:00:00 | 00:00:00 | 00:00:00 | |
| OM5KV | 2026-09-02 18:07:24 | 44.81243 | 20.98547 | 90° | 51km/h | 16759m | 5.5m/s | -56.6°C | 2.0% | 0hPa | 0V | 00:00:00 | 00:00:00 | 00:00:00 | |
| OM5KV | 2026-09-02 18:07:23 | 44.81242 | 20.98529 | 88° | 51km/h | 16753m | 6.3m/s | -56.5°C | 2.0% | 0hPa | 0V | 00:00:00 | 00:00:00 | 00:00:00 | |
| OM5KV | 2026-09-02 18:07:18 | 44.81238 | 20.98444 | 80° | 49km/h | 16723m | 6.1m/s | -56.7°C | 2.1% | 0hPa | 0V | 00:00:00 | 00:00:00 | 00:00:00 | |
| OM5KV | 2026-09-02 18:07:17 | 44.81236 | 20.98427 | 77° | 51km/h | 16718m | 5.0m/s | -56.7°C | 2.1% | 0hPa | 0V | 00:00:00 | 00:00:00 | 00:00:00 | |
| OM5KV | 2026-09-02 18:07:12 | 44.81226 | 20.98335 | 84° | 53km/h | 16690m | 5.5m/s | -56.7°C | 2.1% | 0hPa | 0V | 00:00:00 | 00:00:00 | 00:00:00 | |
| OM5KV | 2026-09-02 18:07:11 | 44.81225 | 20.98317 | 85° | 49km/h | 16684m | 6.5m/s | -56.6°C | 2.1% | 0hPa | 0V | 00:00:00 | 00:00:00 | 00:00:00 | |
| OM5KV | 2026-09-02 18:07:06 | 44.81216 | 20.98237 | 80° | 46km/h | 16655m | 5.3m/s | -56.5°C | 2.1% | 0hPa | 0V | 00:00:00 | 00:00:00 | 00:00:00 | |
| OM5KV | 2026-09-02 18:07:00 | 44.81211 | 20.98131 | 90° | 53km/h | 16622m | 6.7m/s | -56.5°C | 2.1% | 0hPa | 0V | 00:00:00 | 00:00:00 | 00:00:00 | |
| OM5KV | 2026-09-02 18:06:59 | 44.81211 | 20.98112 | 91° | 51km/h | 16617m | 4.5m/s | -56.5°C | 2.1% | 0hPa | 0V | 00:00:00 | 00:00:00 | 00:00:00 | |
| OM5KV | 2026-09-02 18:06:54 | 44.81203 | 20.98033 | 80° | 40km/h | 16591m | 6.0m/s | -56.5°C | 2.1% | 0hPa | 0V | 00:00:00 | 00:00:00 | 00:00:00 | |
| OM5KV | 2026-09-02 18:06:53 | 44.81201 | 20.98019 | 85° | 40km/h | 16586m | 5.2m/s | -56.5°C | 2.1% | 0hPa | 0V | 00:00:00 | 00:00:00 | 00:00:00 | |
| OM5KV | 2026-09-02 18:06:48 | 44.81197 | 20.97936 | 87° | 53km/h | 16558m | 5.2m/s | -56.3°C | 2.1% | 0hPa | 0V | 00:00:00 | 00:00:00 | 00:00:00 | |
| OM5KV | 2026-09-02 18:06:42 | 44.81186 | 20.97825 | 90° | 47km/h | 16526m | 5.1m/s | -56.3°C | 2.0% | 0hPa | 0V | 00:00:00 | 00:00:00 | 00:00:00 | |
| OM5KV | 2026-09-02 18:06:31 | 44.81180 | 20.97642 | 88° | 37km/h | 16467m | 6.0m/s | -56.3°C | 2.0% | 0hPa | 0V | 00:00:00 | 00:00:00 | 00:00:00 | |
| OM5KV | 2026-09-02 18:06:25 | 44.81184 | 20.97549 | 101° | 53km/h | 16437m | 5.8m/s | -56.3°C | 2.0% | 0hPa | 0V | 00:00:00 | 00:00:00 | 00:00:00 | |
| OM5KV | 2026-09-02 18:06:19 | 44.81192 | 20.97447 | 94° | 44km/h | 16405m | 4.6m/s | -56.6°C | 2.0% | 0hPa | 0V | 00:00:00 | 00:00:00 | 00:00:00 | |
| OM5KV | 2026-09-02 18:06:14 | 44.81193 | 20.97368 | 89° | 57km/h | 16382m | 5.7m/s | -56.9°C | 2.1% | 0hPa | 0V | 00:00:00 | 00:00:00 | 00:00:00 | |
| OM5KV | 2026-09-02 18:06:13 | 44.81193 | 20.97347 | 91° | 62km/h | 16376m | 4.9m/s | -57.0°C | 2.1% | 0hPa | 0V | 00:00:00 | 00:00:00 | 00:00:00 | |
| OM5KV | 2026-09-02 18:06:03 | 44.81214 | 20.97147 | 96° | 64km/h | 16326m | 6.8m/s | -56.9°C | 2.1% | 0hPa | 0V | 00:00:00 | 00:00:00 | 00:00:00 | |
| OM5KV | 2026-09-02 18:05:57 | 44.81226 | 20.97004 | 104° | 57km/h | 16294m | 5.8m/s | -56.7°C | 2.1% | 0hPa | 0V | 00:00:00 | 00:00:00 | 00:00:00 | |
| OM5KV | 2026-09-02 18:05:51 | 44.81232 | 20.96889 | 86° | 68km/h | 16262m | 5.8m/s | -56.7°C | 2.1% | 0hPa | 0V | 00:00:00 | 00:00:00 | 00:00:00 | |
| OM5KV | 2026-09-02 18:05:46 | 44.81238 | 20.96765 | 102° | 62km/h | 16236m | 6.2m/s | -56.8°C | 2.2% | 0hPa | 0V | 00:00:00 | 00:00:00 | 00:00:00 | |
| OM5KV | 2026-09-02 18:05:45 | 44.81241 | 20.96745 | 96° | 53km/h | 16231m | 5.4m/s | -56.8°C | 2.2% | 0hPa | 0V | 00:00:00 | 00:00:00 | 00:00:00 | |
| OM5KV | 2026-09-02 18:05:40 | 44.81228 | 20.96645 | 76° | 69km/h | 16205m | 3.6m/s | -56.8°C | 2.2% | 0hPa | 0V | 00:00:00 | 00:00:00 | 00:00:00 | |
| OM5KV | 2026-09-02 18:05:39 | 44.81225 | 20.96620 | 83° | 73km/h | 16200m | 4.9m/s | -56.8°C | 2.2% | 0hPa | 0V | 00:00:00 | 00:00:00 | 00:00:00 | |
| OM5KV | 2026-09-02 18:05:35 | 44.81233 | 20.96527 | 103° | 53km/h | 16177m | 5.6m/s | -56.8°C | 2.2% | 0hPa | 0V | 00:00:00 | 00:00:00 | 00:00:00 | |
| OM5KV | 2026-09-02 18:05:34 | 44.81235 | 20.96510 | 96° | 47km/h | 16172m | 5.4m/s | -56.8°C | 2.2% | 0hPa | 0V | 00:00:00 | 00:00:00 | 00:00:00 | |
| OM5KV | 2026-09-02 18:05:29 | 44.81226 | 20.96410 | 75° | 62km/h | 16142m | 6.5m/s | -56.8°C | 2.2% | 0hPa | 0V | 00:00:00 | 00:00:00 | 00:00:00 | |
| OM5KV | 2026-09-02 18:05:23 | 44.81211 | 20.96302 | 82° | 46km/h | 16112m | 5.0m/s | -56.7°C | 2.2% | 0hPa | 0V | 00:00:00 | 00:00:00 | 00:00:00 | |
| OM5KV | 2026-09-02 18:05:16 | 44.81194 | 20.96176 | 87° | 51km/h | 16073m | 5.8m/s | -56.5°C | 2.2% | 0hPa | 0V | 00:00:00 | 00:00:00 | 00:00:00 | |
| OM5KV | 2026-09-02 18:05:14 | 44.81190 | 20.96123 | 79° | 51km/h | 16057m | 4.3m/s | -56.5°C | 2.2% | 0hPa | 0V | 00:00:00 | 00:00:00 | 00:00:00 | |
| OM5KV | 2026-09-02 18:05:11 | 44.81184 | 20.96083 | 78° | 62km/h | 16047m | 6.0m/s | -56.4°C | 2.2% | 0hPa | 0V | 00:00:00 | 00:00:00 | 00:00:00 | |
| OM5KV | 2026-09-02 18:05:10 | 44.81180 | 20.96061 | 79° | 66km/h | 16042m | 4.7m/s | -56.4°C | 2.2% | 0hPa | 0V | 00:00:00 | 00:00:00 | 00:00:00 | |
| OM5KV | 2026-09-02 18:05:01 | 44.81158 | 20.95875 | 85° | 55km/h | 15997m | 4.6m/s | -56.3°C | 2.2% | 0hPa | 0V | 00:00:00 | 00:00:00 | 00:00:00 | |
| OM5KV | 2026-09-02 18:04:56 | 44.81146 | 20.95762 | 79° | 68km/h | 15972m | 3.5m/s | -56.4°C | 2.2% | 0hPa | 0V | 00:00:00 | 00:00:00 | 00:00:00 | |
| OM5KV | 2026-09-02 18:04:49 | 44.81133 | 20.95602 | 81° | 66km/h | 15936m | 5.2m/s | -56.3°C | 2.2% | 0hPa | 0V | 00:00:00 | 00:00:00 | 00:00:00 | |
| OM5KV | 2026-09-02 18:04:48 | 44.81130 | 20.95579 | 82° | 69km/h | 15931m | 5.3m/s | -56.2°C | 2.2% | 0hPa | 0V | 00:00:00 | 00:00:00 | 00:00:00 | |
| OM5KV | 2026-09-02 18:04:44 | 44.81113 | 20.95479 | 74° | 69km/h | 15911m | 4.4m/s | -56.1°C | 2.2% | 0hPa | 0V | 00:00:00 | 00:00:00 | 00:00:00 | |
| OM5KV | 2026-09-02 18:04:37 | 44.81099 | 20.95337 | 87° | 62km/h | 15874m | 4.8m/s | -56.0°C | 2.1% | 0hPa | 0V | 00:00:00 | 00:00:00 | 00:00:00 | |
| OM5KV | 2026-09-02 18:04:31 | 44.81081 | 20.95204 | 81° | 64km/h | 15842m | 5.4m/s | -55.9°C | 2.1% | 0hPa | 0V | 00:00:00 | 00:00:00 | 00:00:00 | |
| OM5KV | 2026-09-02 18:04:26 | 44.81075 | 20.95093 | 86° | 64km/h | 15815m | 6.1m/s | -56.0°C | 2.2% | 0hPa | 0V | 00:00:00 | 00:00:00 | 00:00:00 | |
| LZ4TU-5 | 2026-09-02 17:54:16 | 44.78992 | 20.78694 | 72° | 111km/h | 12510m | 5.1m/s | -53.8°C | 15.4% | 0hPa | 0V | 00:00:00 | 00:00:00 | 00:00:00 | |
| LZ4TU-5 | 2026-09-02 17:54:11 | 44.78966 | 20.78502 | 84° | 111km/h | 12488m | 3.9m/s | -53.9°C | 15.9% | 0hPa | 0V | 00:00:00 | 00:00:00 | 00:00:00 | |
| LZ4TU-5 | 2026-09-02 17:54:06 | 44.78927 | 20.78312 | 71° | 111km/h | 12464m | 5.1m/s | -54.1°C | 0% | 0hPa | 0V | 00:00:00 | 00:00:00 | 00:00:00 | |
| LZ4TU-5 | 2026-09-02 17:48:27 | 44.74866 | 20.65689 | 76° | 106km/h | 10618m | 4.4m/s | -49.3°C | 39.2% | 0hPa | 0V | 00:00:00 | 00:00:00 | 00:00:00 | |
| LZ4TU-5 | 2026-09-02 17:48:22 | 44.74841 | 20.65525 | 79° | 86km/h | 10589m | 6.8m/s | -49.1°C | 38.1% | 0hPa | 0V | 00:00:00 | 00:00:00 | 00:00:00 | |
| LZ4TU-5 | 2026-09-02 17:46:39 | 44.74277 | 20.62585 | 78° | 69km/h | 9998m | 7.6m/s | -44.3°C | 20.4% | 0hPa | 0V | 00:00:00 | 00:00:00 | 00:00:00 | |
| LZ4TU-5 | 2026-09-02 17:46:34 | 44.74248 | 20.62457 | 87° | 71km/h | 9972m | 4.9m/s | -44.0°C | 20.2% | 0hPa | 0V | 00:00:00 | 00:00:00 | 00:00:00 | |
| LZ4TU-5 | 2026-09-02 17:45:20 | 44.74123 | 20.60697 | 85° | 66km/h | 9557m | 6.1m/s | -40.6°C | 0% | 0hPa | 0V | 00:00:00 | 00:00:00 | 00:00:00 | |
| LZ4TU-5 | 2026-09-02 17:45:16 | 44.74125 | 20.60602 | 101° | 71km/h | 9537m | 4.1m/s | -40.4°C | 14.4% | 0hPa | 0V | 00:00:00 | 00:00:00 | 00:00:00 | |
| LZ4TU-5 | 2026-09-02 17:44:02 | 44.74145 | 20.59023 | 94° | 49km/h | 9109m | 4.8m/s | -36.8°C | 11.3% | 0hPa | 0V | 00:00:00 | 00:00:00 | 00:00:00 | |
| LZ4TU-5 | 2026-09-02 17:43:57 | 44.74142 | 20.58929 | 93° | 60km/h | 9077m | 4.3m/s | -36.6°C | 11.6% | 0hPa | 0V | 00:00:00 | 00:00:00 | 00:00:00 |